Time;durP1;ratioP1;P1;durP2;ratioP2;P2;SDS_P1;SDS_P2;PMS_P1;PMS_P2;Temp;Humidity;BMP_temperature;BMP_pressure;BME280_temperature;BME280_humidity;BME280_pressure;Samples;Min_cycle;Max_cycle;Signal;HPM_P1;HPM_P2
2021/01/16 00:00:34;;;;;;;0.20;0.10;;;;;;;1.93;93.63;101474.94;5063456;28;20943;-50
2021/01/16 00:03:02;;;;;;;0.20;0.10;;;;;;;2.07;93.54;101467.41;5069177;28;20861;-50
2021/01/16 00:05:29;;;;;;;0.20;0.10;;;;;;;2.09;93.29;101470.97;5069583;28;20457;-50
2021/01/16 00:08:16;;;;;;;0.20;0.10;;;;;;;2.03;93.16;101465.53;5065961;28;20965;-50
2021/01/16 00:10:47;;;;;;;0.20;0.10;;;;;;;2.31;92.34;101461.84;5064180;28;20499;-49
2021/01/16 00:13:15;;;;;;;0.20;0.10;;;;;;;2.15;91.97;101463.22;5065071;28;20490;-49
2021/01/16 00:15:43;;;;;;;0.20;0.10;;;;;;;2.12;93.24;101471.03;5070771;28;20450;-49
2021/01/16 00:18:15;;;;;;;0.27;0.20;;;;;;;1.89;93.54;101459.94;5070667;28;20449;-52
2021/01/16 00:20:45;;;;;;;0.20;0.10;;;;;;;2.05;92.32;101462.09;5077621;28;20450;-50
2021/01/16 00:23:12;;;;;;;0.20;0.10;;;;;;;1.82;93.87;101452.78;5063724;28;20454;-49
2021/01/16 00:25:40;;;;;;;0.20;0.10;;;;;;;1.92;93.77;101454.81;5069281;28;20450;-49
2021/01/16 00:28:13;;;;;;;0.30;0.10;;;;;;;2.01;93.83;101448.88;5064334;28;20500;-49
2021/01/16 00:30:40;;;;;;;0.20;0.10;;;;;;;1.87;93.86;101447.66;5067011;28;20457;-49
2021/01/16 00:33:24;;;;;;;0.20;0.10;;;;;;;1.93;93.54;101447.84;5064060;28;20874;-50
2021/01/16 00:35:52;;;;;;;0.20;0.10;;;;;;;1.83;93.00;101451.06;5065242;28;20442;-50
2021/01/16 00:38:20;;;;;;;0.20;0.20;;;;;;;1.85;93.89;101444.13;5070618;28;20467;-49
2021/01/16 00:40:46;;;;;;;0.20;0.10;;;;;;;1.82;93.77;101442.31;5070071;28;20495;-49
2021/01/16 00:43:16;;;;;;;0.20;0.10;;;;;;;1.73;94.37;101439.44;5064071;28;20946;-50
2021/01/16 00:45:47;;;;;;;0.20;0.10;;;;;;;1.68;93.30;101446.31;5064911;28;20447;-49
2021/01/16 00:48:15;;;;;;;0.20;0.10;;;;;;;1.62;93.45;101451.38;5070304;28;20477;-49
2021/01/16 00:50:43;;;;;;;0.20;0.10;;;;;;;1.73;92.71;101452.53;5070513;28;20876;-52
2021/01/16 00:53:09;;;;;;;0.20;0.10;;;;;;;1.63;93.31;101450.53;5064497;28;20490;-49
2021/01/16 00:55:36;;;;;;;0.20;0.10;;;;;;;1.70;93.07;101450.75;5063780;28;20517;-50
2021/01/16 00:58:13;;;;;;;0.20;0.10;;;;;;;1.71;93.38;101447.28;5069924;28;20456;-50
2021/01/16 01:00:41;;;;;;;0.20;0.10;;;;;;;1.58;93.45;101457.38;5071032;28;20448;-49
2021/01/16 01:03:09;;;;;;;0.30;0.20;;;;;;;1.62;93.25;101449.63;5066009;28;21000;-49
2021/01/16 01:05:35;;;;;;;0.40;0.40;;;;;;;1.73;93.86;101449.94;5063718;28;20446;-49
2021/01/16 01:08:02;;;;;;;0.20;0.20;;;;;;;1.59;93.55;101456.53;5068048;28;20526;-49
2021/01/16 01:10:46;;;;;;;0.20;0.13;;;;;;;1.79;93.67;101452.72;5070212;28;20821;-49
2021/01/16 01:13:14;;;;;;;0.20;0.10;;;;;;;1.98;92.62;101454.06;5067354;28;20490;-49
2021/01/16 01:15:40;;;;;;;0.20;0.10;;;;;;;1.94;92.02;101447.88;5063228;28;20446;-49
2021/01/16 01:18:07;;;;;;;0.20;0.10;;;;;;;1.98;92.30;101456.69;5065376;28;20461;-49
2021/01/16 01:20:34;;;;;;;0.20;0.10;;;;;;;1.95;92.48;101454.88;5078354;22;20497;-51
2021/01/16 01:23:01;;;;;;;0.30;0.20;;;;;;;1.80;93.01;101453.63;5060617;28;20818;-51
2021/01/16 01:25:27;;;;;;;0.20;0.10;;;;;;;2.06;91.67;101461.28;5047700;28;20930;-51
2021/01/16 01:27:55;;;;;;;0.20;0.10;;;;;;;2.01;92.78;101464.63;5069049;28;20523;-52
2021/01/16 01:30:24;;;;;;;0.20;0.10;;;;;;;2.06;92.14;101465.66;5053701;28;20471;-51
2021/01/16 01:32:51;;;;;;;0.27;0.17;;;;;;;1.94;93.28;101463.59;5053680;28;20494;-51
2021/01/16 01:35:18;;;;;;;0.20;0.10;;;;;;;2.11;92.38;101460.50;5053629;28;20446;-51
2021/01/16 01:37:47;;;;;;;0.20;0.10;;;;;;;2.01;92.02;101464.63;5053377;28;20477;-53
2021/01/16 01:40:16;;;;;;;0.20;0.10;;;;;;;2.07;92.41;101468.31;5053483;28;20467;-51
2021/01/16 01:42:45;;;;;;;0.40;0.37;;;;;;;1.95;91.79;101464.47;5053388;28;20458;-51
2021/01/16 01:45:12;;;;;;;0.20;0.10;;;;;;;1.96;92.14;101472.38;5053432;28;20459;-51
2021/01/16 01:47:40;;;;;;;0.40;0.40;;;;;;;1.88;93.47;101460.81;5053535;28;20450;-51
2021/01/16 01:50:09;;;;;;;0.20;0.10;;;;;;;1.85;93.78;101467.72;5046159;28;20470;-52
2021/01/16 01:52:36;;;;;;;0.20;0.10;;;;;;;1.95;92.59;101468.00;5053050;28;20500;-51
2021/01/16 01:55:05;;;;;;;0.20;0.10;;;;;;;1.91;92.69;101463.50;5053127;28;20451;-51
2021/01/16 01:57:37;;;;;;;0.20;0.10;;;;;;;2.08;91.95;101458.69;5053081;28;20446;-50
2021/01/16 02:00:07;;;;;;;0.20;0.10;;;;;;;2.12;91.58;101454.41;5053232;28;20470;-50
2021/01/16 02:02:35;;;;;;;0.20;0.10;;;;;;;1.98;91.75;101454.94;5053941;28;20473;-50
2021/01/16 02:05:04;;;;;;;0.20;0.10;;;;;;;1.83;92.16;101451.94;5057253;28;20450;-51
2021/01/16 02:07:38;;;;;;;0.20;0.10;;;;;;;1.96;92.74;101443.53;5056874;28;20457;-50
2021/01/16 02:10:29;;;;;;;0.20;0.10;;;;;;;1.75;92.74;101441.25;5057147;28;20466;-52
2021/01/16 02:12:57;;;;;;;0.20;0.10;;;;;;;1.84;93.45;101445.84;5057139;28;20548;-50
2021/01/16 02:15:43;;;;;;;0.20;0.10;;;;;;;1.93;91.04;101442.59;5056993;28;20457;-51
2021/01/16 02:18:20;;;;;;;0.20;0.10;;;;;;;1.75;90.88;101448.22;5055856;28;20447;-51
2021/01/16 02:20:47;;;;;;;0.20;0.10;;;;;;;1.65;89.63;101448.84;5045336;28;20473;-50
2021/01/16 02:23:30;;;;;;;0.20;0.20;;;;;;;1.62;89.34;101440.88;5057002;28;20446;-51
2021/01/16 02:26:15;;;;;;;0.30;0.20;;;;;;;1.65;89.20;101439.25;5054976;28;20451;-52
2021/01/16 02:28:52;;;;;;;0.20;0.10;;;;;;;1.56;89.70;101433.78;5030994;28;20493;-51
2021/01/16 02:31:19;;;;;;;0.20;0.10;;;;;;;1.66;89.56;101443.66;5056716;28;20446;-51
2021/01/16 02:33:47;;;;;;;0.20;0.10;;;;;;;1.58;90.23;101439.06;5056768;28;20454;-51
2021/01/16 02:36:25;;;;;;;0.20;0.10;;;;;;;1.60;90.18;101434.72;5056525;28;20458;-51
2021/01/16 02:39:13;;;;;;;0.20;0.10;;;;;;;1.52;88.00;101433.66;5056417;28;20884;-51
2021/01/16 02:41:55;;;;;;;0.20;0.10;;;;;;;1.41;87.54;101433.38;5056628;28;20438;-51
2021/01/16 02:44:50;;;;;;;0.20;0.13;;;;;;;1.37;86.55;101434.09;5056742;28;20504;-51
2021/01/16 02:47:30;;;;;;;0.20;0.10;;;;;;;1.37;85.02;101431.50;5056619;28;20474;-52
2021/01/16 02:50:09;;;;;;;0.20;0.10;;;;;;;1.40;85.39;101435.09;5039001;28;20586;-50
2021/01/16 02:52:42;;;;;;;1.10;1.07;;;;;;;1.30;85.36;101437.41;5056471;28;21185;-51
2021/01/16 02:55:09;;;;;;;0.20;0.13;;;;;;;1.39;84.51;101435.06;5056243;28;20512;-51
2021/01/16 02:57:35;;;;;;;0.30;0.10;;;;;;;1.43;83.91;101439.53;5056068;28;20862;-51
2021/01/16 03:00:06;;;;;;;0.20;0.10;;;;;;;1.39;84.67;101437.69;5056114;28;20848;-50
2021/01/16 03:02:32;;;;;;;0.20;0.10;;;;;;;1.29;84.02;101433.91;5055911;28;20442;-51
2021/01/16 03:04:59;;;;;;;0.20;0.10;;;;;;;1.36;83.48;101440.19;5056252;28;20451;-50
2021/01/16 03:07:27;;;;;;;0.20;0.10;;;;;;;1.33;83.12;101434.88;5056196;28;20454;-51
2021/01/16 03:09:56;;;;;;;0.20;0.10;;;;;;;1.38;82.84;101442.03;5055914;28;20823;-51
2021/01/16 03:12:22;;;;;;;0.20;0.10;;;;;;;1.38;83.36;101443.78;5056147;28;20490;-50
2021/01/16 03:14:54;;;;;;;0.20;0.10;;;;;;;1.38;82.89;101447.28;5056301;28;20447;-51
2021/01/16 03:17:25;;;;;;;0.20;0.10;;;;;;;1.50;82.85;101451.94;5056117;28;20446;-50
2021/01/16 03:19:52;;;;;;;0.20;0.10;;;;;;;1.49;83.29;101453.66;5042321;28;21000;-53
2021/01/16 03:22:20;;;;;;;0.20;0.10;;;;;;;1.47;82.46;101447.50;5055838;28;20443;-51
2021/01/16 03:24:48;;;;;;;0.20;0.10;;;;;;;1.57;82.95;101455.63;5055955;28;20451;-51
2021/01/16 03:27:15;;;;;;;0.20;0.10;;;;;;;1.56;83.04;101443.38;5052013;28;20504;-51
2021/01/16 03:29:41;;;;;;;0.20;0.10;;;;;;;1.54;82.31;101450.31;5056306;28;20474;-51
2021/01/16 03:32:08;;;;;;;0.20;0.10;;;;;;;1.58;80.96;101458.28;5055661;28;20486;-51
2021/01/16 03:34:35;;;;;;;0.20;0.10;;;;;;;1.51;81.42;101458.97;5055985;28;20470;-51
2021/01/16 03:37:02;;;;;;;0.20;0.10;;;;;;;1.52;80.48;101459.84;5055419;28;20447;-51
2021/01/16 03:39:29;;;;;;;0.20;0.10;;;;;;;1.32;81.39;101462.81;5055698;28;20467;-51
2021/01/16 03:41:55;;;;;;;0.20;0.10;;;;;;;1.23;82.23;101451.16;5055644;28;20450;-51
2021/01/16 03:44:22;;;;;;;0.20;0.10;;;;;;;1.23;82.78;101449.44;5055579;28;20496;-51
2021/01/16 03:46:48;;;;;;;0.20;0.10;;;;;;;1.15;83.45;101448.34;5055655;28;20870;-50
2021/01/16 03:49:16;;;;;;;0.20;0.10;;;;;;;1.17;83.94;101444.06;5044246;28;20895;-51
2021/01/16 03:51:42;;;;;;;0.20;0.10;;;;;;;1.25;83.34;101449.50;5033706;28;20565;-51
2021/01/16 03:54:08;;;;;;;0.20;0.10;;;;;;;1.20;82.56;101446.75;5051873;28;20485;-50
2021/01/16 03:56:35;;;;;;;0.20;0.10;;;;;;;1.15;82.95;101450.97;5055187;28;20451;-51
2021/01/16 03:59:03;;;;;;;0.20;0.10;;;;;;;1.21;81.47;101452.88;5055235;28;20517;-51
2021/01/16 04:01:31;;;;;;;0.20;0.13;;;;;;;1.16;81.93;101450.13;5055037;28;20951;-51
2021/01/16 04:03:58;;;;;;;0.20;0.10;;;;;;;1.10;81.63;101455.22;5054938;28;20447;-51
2021/01/16 04:06:24;;;;;;;0.20;0.10;;;;;;;1.06;82.35;101455.94;5054996;28;20447;-52
2021/01/16 04:08:50;;;;;;;0.20;0.10;;;;;;;1.13;82.70;101455.28;5054957;28;20528;-50
2021/01/16 04:11:16;;;;;;;0.20;0.10;;;;;;;1.08;82.06;101449.91;5054979;28;20447;-51
2021/01/16 04:13:43;;;;;;;0.20;0.10;;;;;;;1.09;82.33;101451.66;5041828;28;20478;-51
2021/01/16 04:16:09;;;;;;;0.20;0.10;;;;;;;1.15;82.24;101451.88;5054808;28;20482;-51
2021/01/16 04:18:36;;;;;;;0.20;0.20;;;;;;;1.23;81.27;101454.69;5050939;28;20463;-52
2021/01/16 04:21:03;;;;;;;0.20;0.10;;;;;;;0.98;80.83;101449.63;5045413;28;20449;-51
2021/01/16 04:23:30;;;;;;;0.20;0.10;;;;;;;1.02;80.73;101446.22;5054866;28;20489;-51
2021/01/16 04:25:57;;;;;;;0.20;0.10;;;;;;;1.00;81.22;101451.44;5052233;28;20450;-51
2021/01/16 04:28:23;;;;;;;0.20;0.10;;;;;;;0.87;81.21;101447.56;5052212;28;20446;-51
2021/01/16 04:30:50;;;;;;;0.20;0.10;;;;;;;0.92;81.61;101454.66;5054462;28;20450;-51
2021/01/16 04:33:16;;;;;;;0.20;0.10;;;;;;;1.00;80.47;101458.41;5054319;28;20536;-51
2021/01/16 04:35:43;;;;;;;0.20;0.10;;;;;;;0.90;81.68;101452.00;5054763;28;20466;-51
2021/01/16 04:38:10;;;;;;;0.20;0.10;;;;;;;0.96;80.81;101453.91;5054580;28;20469;-50
2021/01/16 04:40:36;;;;;;;0.20;0.10;;;;;;;0.91;82.06;101451.16;5054335;28;20471;-50
2021/01/16 04:43:04;;;;;;;0.20;0.10;;;;;;;0.95;82.62;101459.97;5054250;28;20936;-51
2021/01/16 04:45:32;;;;;;;0.20;0.10;;;;;;;0.85;82.39;101464.06;5054289;28;20457;-50
2021/01/16 04:48:00;;;;;;;0.20;0.10;;;;;;;0.92;83.14;101458.16;5044414;28;20460;-51
2021/01/16 04:50:28;;;;;;;0.20;0.10;;;;;;;0.95;83.48;101452.13;5034212;28;20479;-51
2021/01/16 04:53:07;;;;;;;0.20;0.10;;;;;;;1.03;83.35;101454.13;5053286;28;20490;-51
2021/01/16 04:55:35;;;;;;;0.20;0.10;;;;;;;0.92;83.07;101452.94;5053890;28;20508;-50
2021/01/16 04:58:11;;;;;;;0.30;0.30;;;;;;;1.07;83.01;101458.59;5054134;28;20572;-51
2021/01/16 05:00:41;;;;;;;0.20;0.10;;;;;;;0.99;82.54;101454.00;5041673;28;20486;-51
2021/01/16 05:03:10;;;;;;;0.20;0.10;;;;;;;1.04;82.51;101453.28;5041706;28;20454;-51
2021/01/16 05:05:41;;;;;;;0.20;0.10;;;;;;;1.18;81.84;101458.91;5040471;28;20823;-51
2021/01/16 05:08:08;;;;;;;0.20;0.10;;;;;;;1.11;83.13;101459.59;5053941;28;20446;-51
2021/01/16 05:10:38;;;;;;;0.20;0.10;;;;;;;1.14;82.24;101451.81;5053741;28;20473;-52
2021/01/16 05:13:17;;;;;;;0.20;0.10;;;;;;;1.18;82.11;101449.31;5053618;28;20536;-52
2021/01/16 05:15:46;;;;;;;0.20;0.10;;;;;;;1.08;83.16;101441.16;5028898;28;20442;-51
2021/01/16 05:18:16;;;;;;;0.20;0.10;;;;;;;1.10;82.70;101443.00;5053006;28;20458;-50
2021/01/16 05:20:44;;;;;;;0.20;0.10;;;;;;;1.14;82.54;101438.72;5041245;28;21151;-50
2021/01/16 05:23:16;;;;;;;0.20;0.10;;;;;;;1.15;82.91;101433.53;5053456;28;20446;-51
2021/01/16 05:25:52;;;;;;;0.20;0.20;;;;;;;1.03;82.50;101435.81;5053683;28;20538;-51
2021/01/16 05:28:20;;;;;;;0.20;0.10;;;;;;;0.95;83.20;101437.31;5050419;28;20935;-52
2021/01/16 05:30:49;;;;;;;0.20;0.10;;;;;;;0.96;82.83;101427.72;5053613;28;20538;-50
2021/01/16 05:33:16;;;;;;;0.20;0.10;;;;;;;0.96;83.60;101428.63;5053130;28;21032;-51
2021/01/16 05:35:43;;;;;;;0.20;0.10;;;;;;;1.16;82.64;101426.56;5053685;28;20465;-52
2021/01/16 05:38:12;;;;;;;0.20;0.10;;;;;;;1.12;83.67;101416.88;5052840;28;20451;-50
2021/01/16 05:40:42;;;;;;;0.20;0.10;;;;;;;1.03;84.85;101412.25;5054010;28;20467;-51
2021/01/16 05:43:09;;;;;;;0.20;0.10;;;;;;;1.05;82.98;101415.78;5053733;28;20442;-50
2021/01/16 05:45:36;;;;;;;0.20;0.10;;;;;;;1.31;83.01;101424.38;5053222;28;20509;-50
2021/01/16 05:48:06;;;;;;;0.20;0.10;;;;;;;1.04;81.89;101427.09;5052050;28;20447;-50
2021/01/16 05:50:39;;;;;;;0.20;0.10;;;;;;;1.15;81.69;101422.19;5046599;28;20525;-52
2021/01/16 05:53:06;;;;;;;0.20;0.10;;;;;;;1.22;82.12;101418.88;5028879;28;20494;-52
2021/01/16 05:55:33;;;;;;;0.20;0.10;;;;;;;1.35;81.53;101426.22;5053226;28;20529;-50
2021/01/16 05:58:07;;;;;;;0.20;0.10;;;;;;;1.35;81.07;101420.97;5053339;28;20550;-51
2021/01/16 06:00:39;;;;;;;0.20;0.10;;;;;;;1.34;81.47;101418.31;5052986;28;20467;-51
2021/01/16 06:03:07;;;;;;;0.20;0.10;;;;;;;1.12;83.08;101409.91;5053435;28;20455;-51
2021/01/16 06:05:35;;;;;;;0.20;0.10;;;;;;;1.11;82.85;101413.34;5053321;28;20528;-51
2021/01/16 06:08:02;;;;;;;0.60;0.57;;;;;;;1.08;84.81;101412.38;5053446;28;20454;-51
2021/01/16 06:10:32;;;;;;;0.20;0.10;;;;;;;1.31;84.21;101419.13;5053282;28;20470;-50
2021/01/16 06:13:11;;;;;;;0.20;0.10;;;;;;;1.17;83.60;101416.13;5053276;28;20517;-50
2021/01/16 06:15:47;;;;;;;0.20;0.10;;;;;;;1.44;82.50;101418.59;5053208;28;20477;-51
2021/01/16 06:18:18;;;;;;;0.20;0.13;;;;;;;1.26;83.69;101423.38;5052904;28;21026;-51
2021/01/16 06:20:48;;;;;;;0.20;0.10;;;;;;;0.95;84.60;101420.72;5053117;28;20482;-52
2021/01/16 06:23:17;;;;;;;0.20;0.10;;;;;;;0.95;85.79;101421.59;5053360;28;20489;-51
2021/01/16 06:25:48;;;;;;;0.20;0.10;;;;;;;1.31;85.08;101428.72;5052532;28;20454;-53
2021/01/16 06:28:18;;;;;;;0.20;0.10;;;;;;;1.08;83.96;101422.84;5050018;28;20492;-52
2021/01/16 06:30:46;;;;;;;0.20;0.10;;;;;;;0.96;85.17;101428.63;5053087;28;20470;-52
2021/01/16 06:33:26;;;;;;;0.20;0.10;;;;;;;0.91;85.37;101430.22;5052963;28;20495;-51
2021/01/16 06:36:01;;;;;;;0.20;0.10;;;;;;;0.79;86.17;101432.47;5053174;28;20939;-51
2021/01/16 06:38:29;;;;;;;0.20;0.10;;;;;;;1.15;85.98;101433.53;5027097;28;20496;-51
2021/01/16 06:41:10;;;;;;;0.20;0.10;;;;;;;0.81;86.35;101428.16;5053324;28;20486;-51
2021/01/16 06:43:40;;;;;;;0.20;0.10;;;;;;;0.79;86.34;101435.09;5052676;28;20454;-51
2021/01/16 06:46:09;;;;;;;0.20;0.10;;;;;;;0.85;86.33;101424.81;5053434;28;20474;-51
2021/01/16 06:48:46;;;;;;;0.20;0.10;;;;;;;0.74;85.37;101424.50;5049808;28;20452;-51
2021/01/16 06:51:23;;;;;;;0.20;0.10;;;;;;;0.78;85.48;101420.22;5054978;28;20442;-50
2021/01/16 06:53:50;;;;;;;0.20;0.10;;;;;;;0.69;86.42;101417.38;5056959;28;20494;-51
2021/01/16 06:56:25;;;;;;;0.20;0.10;;;;;;;0.70;84.64;101412.19;5056425;28;20488;-50
2021/01/16 06:58:55;;;;;;;0.20;0.10;;;;;;;0.81;82.49;101417.69;5056307;28;20532;-51
2021/01/16 07:01:29;;;;;;;0.20;0.10;;;;;;;0.65;81.90;101408.53;5055901;28;20867;-51
2021/01/16 07:03:59;;;;;;;0.20;0.10;;;;;;;0.57;82.79;101415.28;5056429;28;20943;-51
2021/01/16 07:06:26;;;;;;;0.20;0.10;;;;;;;0.75;83.11;101409.69;5055407;28;20504;-51
2021/01/16 07:08:53;;;;;;;0.20;0.10;;;;;;;0.80;82.19;101415.94;5055890;28;20470;-50
2021/01/16 07:11:20;;;;;;;0.20;0.10;;;;;;;0.57;79.00;101412.66;5056243;28;20497;-51
2021/01/16 07:13:46;;;;;;;0.20;0.10;;;;;;;0.56;79.71;101408.25;5055801;28;20482;-50
2021/01/16 07:16:17;;;;;;;0.20;0.10;;;;;;;0.50;80.39;101408.94;5056322;28;20504;-50
2021/01/16 07:18:44;;;;;;;0.20;0.10;;;;;;;0.57;81.10;101408.31;5051886;28;20558;-50
2021/01/16 07:21:10;;;;;;;0.20;0.10;;;;;;;0.64;80.33;101404.13;5047825;28;20497;-50
2021/01/16 07:23:36;;;;;;;0.20;0.10;;;;;;;0.67;79.37;101404.22;5056174;28;20500;-50
2021/01/16 07:26:03;;;;;;;0.20;0.10;;;;;;;0.64;80.05;101395.41;5054064;28;20464;-50
2021/01/16 07:28:33;;;;;;;0.20;0.10;;;;;;;0.73;79.79;101399.19;5055138;28;20451;-50
2021/01/16 07:31:01;;;;;;;0.50;0.20;;;;;;;0.62;80.70;101390.13;5055982;28;20832;-50
2021/01/16 07:33:29;;;;;;;0.20;0.10;;;;;;;0.61;81.60;101392.69;5055801;28;20500;-50
2021/01/16 07:35:58;;;;;;;0.20;0.10;;;;;;;0.53;82.23;101393.34;5055847;28;20512;-50
2021/01/16 07:38:27;;;;;;;0.20;0.10;;;;;;;0.56;81.18;101392.56;5029972;28;20506;-50
2021/01/16 07:40:56;;;;;;;0.20;0.10;;;;;;;0.53;82.53;101390.72;5055476;28;20572;-50
2021/01/16 07:43:49;;;;;;;0.20;0.10;;;;;;;0.60;81.34;101391.81;5055524;28;21005;-50
2021/01/16 07:46:20;;;;;;;0.20;0.10;;;;;;;0.62;82.13;101395.34;5054366;28;20516;-51
2021/01/16 07:48:55;;;;;;;0.20;0.10;;;;;;;0.68;82.84;101384.16;5050316;28;20479;-51
2021/01/16 07:51:25;;;;;;;0.20;0.10;;;;;;;0.56;83.32;101389.97;5029937;28;20500;-51
2021/01/16 07:53:55;;;;;;;0.20;0.10;;;;;;;0.65;82.29;101390.19;5054556;28;20491;-51
2021/01/16 07:56:38;;;;;;;0.20;0.10;;;;;;;0.73;81.12;101386.09;5043588;28;20485;-50
2021/01/16 07:59:22;;;;;;;0.20;0.10;;;;;;;0.74;84.00;101389.59;5041962;28;20999;-50
2021/01/16 08:01:57;;;;;;;0.20;0.10;;;;;;;0.85;83.81;101394.31;5054242;28;20518;-50
2021/01/16 08:04:43;;;;;;;0.20;0.10;;;;;;;0.83;84.09;101392.50;5031089;28;20446;-51
2021/01/16 08:07:09;;;;;;;0.20;0.10;;;;;;;0.85;84.14;101396.91;5055076;28;20443;-50
2021/01/16 08:09:50;;;;;;;0.20;0.10;;;;;;;0.88;84.38;101404.84;5055087;28;20466;-50
2021/01/16 08:12:18;;;;;;;0.20;0.10;;;;;;;0.94;84.49;101404.13;5054928;28;20491;-51
2021/01/16 08:14:45;;;;;;;0.20;0.10;;;;;;;0.77;83.12;101395.78;5055664;28;20455;-50
2021/01/16 08:17:27;;;;;;;0.20;0.10;;;;;;;0.82;82.66;101398.53;5055015;28;20450;-50
2021/01/16 08:20:09;;;;;;;0.20;0.10;;;;;;;0.74;80.96;101394.84;5041534;28;20479;-51
2021/01/16 08:22:43;;;;;;;0.20;0.10;;;;;;;0.81;80.61;101402.88;5055820;28;20489;-50
2021/01/16 08:25:14;;;;;;;0.20;0.10;;;;;;;0.91;79.35;101401.44;5054575;28;20450;-50
2021/01/16 08:27:48;;;;;;;0.20;0.10;;;;;;;1.00;78.68;101399.06;5050595;28;20461;-50
2021/01/16 08:30:16;;;;;;;0.20;0.10;;;;;;;1.08;79.62;101402.78;5054495;28;20884;-50
2021/01/16 08:32:52;;;;;;;0.30;0.20;;;;;;;1.13;80.19;101405.53;5054540;28;20490;-51
2021/01/16 08:35:36;;;;;;;0.20;0.10;;;;;;;1.31;79.03;101405.16;5053426;28;20458;-51
2021/01/16 08:38:17;;;;;;;0.20;0.10;;;;;;;1.63;79.38;101403.34;5055208;28;20471;-50
2021/01/16 08:41:03;;;;;;;0.20;0.10;;;;;;;1.92;80.26;101407.63;5054243;28;20536;-50
2021/01/16 08:43:51;;;;;;;0.20;0.10;;;;;;;1.67;78.87;101405.22;5031645;28;20445;-50
2021/01/16 08:46:32;;;;;;;0.20;0.10;;;;;;;1.76;78.59;101403.72;5053788;28;20521;-51
2021/01/16 08:49:17;;;;;;;0.20;0.10;;;;;;;1.56;77.31;101401.44;5047190;28;20849;-50
2021/01/16 08:51:50;;;;;;;0.20;0.10;;;;;;;1.34;77.94;101389.50;5053879;28;20454;-51
2021/01/16 08:54:18;;;;;;;0.20;0.10;;;;;;;1.29;76.91;101386.78;5053764;28;20454;-50
2021/01/16 08:56:44;;;;;;;0.20;0.10;;;;;;;1.18;76.59;101391.72;5053683;28;20450;-50
2021/01/16 08:59:16;;;;;;;0.20;0.10;;;;;;;0.96;78.29;101388.47;5052870;28;20471;-49
2021/01/16 09:01:43;;;;;;;0.20;0.10;;;;;;;1.14;78.14;101387.25;5053566;28;20455;-51
2021/01/16 09:04:23;;;;;;;0.20;0.20;;;;;;;1.01;77.50;101389.50;5054403;28;20447;-50
2021/01/16 09:06:51;;;;;;;0.20;0.10;;;;;;;1.03;76.74;101390.41;5054499;28;20787;-51
2021/01/16 09:09:26;;;;;;;0.20;0.10;;;;;;;1.07;77.30;101389.66;5054929;28;20482;-50
2021/01/16 09:12:12;;;;;;;0.20;0.10;;;;;;;1.01;76.44;101393.00;5054324;28;20454;-51
2021/01/16 09:14:40;;;;;;;0.20;0.10;;;;;;;1.06;76.70;101393.13;5053914;28;20856;-50
2021/01/16 09:17:23;;;;;;;0.20;0.10;;;;;;;1.13;75.86;101395.06;5053831;28;20450;-51
2021/01/16 09:19:57;;;;;;;0.20;0.10;;;;;;;1.06;76.70;101388.75;5040179;28;20528;-51
2021/01/16 09:22:31;;;;;;;0.20;0.10;;;;;;;1.19;75.87;101382.13;5053971;28;20935;-51
2021/01/16 09:25:20;;;;;;;0.20;0.10;;;;;;;1.19;76.98;101379.50;5054178;28;20443;-49
2021/01/16 09:27:48;;;;;;;0.20;0.10;;;;;;;1.23;76.88;101381.34;5049081;28;20455;-49
2021/01/16 09:30:18;;;;;;;0.20;0.10;;;;;;;1.07;75.74;101380.06;5053803;28;20860;-50
2021/01/16 09:32:45;;;;;;;0.20;0.10;;;;;;;1.10;76.34;101368.81;5053917;28;20494;-49
2021/01/16 09:35:11;;;;;;;0.20;0.10;;;;;;;1.00;76.72;101382.50;5053735;28;20837;-50
2021/01/16 09:37:38;;;;;;;0.20;0.10;;;;;;;0.97;75.54;101372.81;5053398;28;20851;-51
2021/01/16 09:40:13;;;;;;;0.20;0.10;;;;;;;0.86;75.44;101367.28;5053798;28;20512;-49
2021/01/16 09:42:47;;;;;;;0.20;0.10;;;;;;;0.86;76.53;101361.16;5053478;28;20449;-50
2021/01/16 09:45:16;;;;;;;0.20;0.10;;;;;;;1.31;76.67;101353.66;5054112;28;20449;-49
2021/01/16 09:47:46;;;;;;;0.20;0.10;;;;;;;1.34;76.37;101353.72;5053399;28;20815;-50
2021/01/16 09:50:15;;;;;;;0.20;0.10;;;;;;;1.71;76.18;101357.28;5045847;28;20982;-50
2021/01/16 09:52:49;;;;;;;0.20;0.10;;;;;;;1.60;75.35;101364.00;5039806;28;20495;-50
2021/01/16 09:55:31;;;;;;;0.20;0.10;;;;;;;1.87;74.11;101364.66;5053438;28;20457;-51
2021/01/16 09:57:59;;;;;;;0.20;0.10;;;;;;;2.10;74.70;101364.34;5053307;28;20446;-50
2021/01/16 10:00:29;;;;;;;0.20;0.10;;;;;;;1.88;72.56;101368.16;5053875;28;20470;-51
2021/01/16 10:03:31;;;;;;;0.20;0.10;;;;;;;1.91;71.86;101366.50;5054411;28;20462;-50
2021/01/16 10:06:04;;;;;;;0.20;0.10;;;;;;;1.64;72.13;101364.09;5053449;28;20541;-50
2021/01/16 10:08:32;;;;;;;0.20;0.10;;;;;;;1.81;71.87;101354.03;5053256;28;20446;-50
2021/01/16 10:11:00;;;;;;;0.20;0.10;;;;;;;1.75;72.87;101356.50;5026914;28;20885;-50
2021/01/16 10:13:35;;;;;;;0.20;0.10;;;;;;;1.82;72.72;101353.19;5053374;28;20495;-50
2021/01/16 10:16:10;;;;;;;0.20;0.10;;;;;;;2.10;72.26;101346.84;5053155;28;20891;-50
2021/01/16 10:18:38;;;;;;;0.20;0.10;;;;;;;2.07;73.84;101352.94;5049286;28;20458;-50
2021/01/16 10:21:04;;;;;;;0.20;0.10;;;;;;;2.14;72.20;101343.44;5045223;28;21006;-50
2021/01/16 10:23:41;;;;;;;0.20;0.10;;;;;;;1.98;71.86;101343.94;5053539;28;20447;-50
2021/01/16 10:26:17;;;;;;;0.20;0.10;;;;;;;1.93;73.19;101345.59;5053662;28;20455;-50
2021/01/16 10:28:49;;;;;;;0.20;0.10;;;;;;;1.94;71.94;101337.75;5031825;28;20469;-49
2021/01/16 10:31:23;;;;;;;0.20;0.10;;;;;;;2.17;71.88;101329.50;5055700;28;20461;-49
2021/01/16 10:33:50;;;;;;;0.20;0.10;;;;;;;2.22;71.96;101326.16;5056459;28;20494;-49
2021/01/16 10:36:19;;;;;;;0.20;0.20;;;;;;;2.36;71.66;101322.09;5056862;28;20451;-50
2021/01/16 10:38:47;;;;;;;0.30;0.20;;;;;;;2.35;71.98;101324.69;5056545;28;20529;-50
2021/01/16 10:41:17;;;;;;;0.20;0.10;;;;;;;2.17;71.99;101322.53;5056666;28;20458;-49
2021/01/16 10:43:43;;;;;;;0.20;0.10;;;;;;;2.38;71.89;101315.13;5056941;28;20927;-50
2021/01/16 10:46:29;;;;;;;0.20;0.10;;;;;;;2.13;72.18;101311.94;5056795;28;20446;-49
2021/01/16 10:49:25;;;;;;;0.20;0.10;;;;;;;2.00;73.18;101301.19;5049178;28;20474;-51
2021/01/16 10:52:02;;;;;;;0.20;0.10;;;;;;;2.06;72.04;101305.69;5036089;28;20496;-49
2021/01/16 10:54:29;;;;;;;0.20;0.10;;;;;;;2.34;72.34;101297.56;5055059;28;20492;-50
2021/01/16 10:57:05;;;;;;;0.20;0.10;;;;;;;2.50;72.27;101279.50;5055950;28;21018;-50
2021/01/16 10:59:38;;;;;;;0.20;0.10;;;;;;;2.37;70.42;101283.63;5055796;28;20520;-50
2021/01/16 11:02:12;;;;;;;0.20;0.10;;;;;;;2.46;71.57;101285.53;5032489;28;20463;-50
2021/01/16 11:04:47;;;;;;;0.20;0.10;;;;;;;2.28;70.91;101286.94;5030626;28;20457;-49
2021/01/16 11:07:28;;;;;;;0.20;0.10;;;;;;;2.53;71.49;101277.81;5055990;28;20439;-50
2021/01/16 11:10:04;;;;;;;0.20;0.10;;;;;;;2.44;70.83;101279.38;5056405;28;20474;-49
2021/01/16 11:12:31;;;;;;;0.20;0.10;;;;;;;2.24;71.34;101281.59;5056439;28;20486;-49
2021/01/16 11:15:01;;;;;;;0.20;0.10;;;;;;;2.24;73.13;101273.72;5056522;28;20454;-50
2021/01/16 11:18:24;;;;;;;0.20;0.10;;;;;;;2.19;71.75;101271.00;5056003;28;20451;-49
2021/01/16 11:20:58;;;;;;;0.20;0.10;;;;;;;2.40;72.37;101265.31;4992244;28;20468;-50
2021/01/16 11:23:38;;;;;;;0.20;0.10;;;;;;;2.55;72.15;101257.75;5000951;28;20448;-49
2021/01/16 11:26:10;;;;;;;0.20;0.10;;;;;;;2.18;70.33;101263.09;5045749;28;20486;-49
2021/01/16 11:28:51;;;;;;;0.20;0.10;;;;;;;2.18;71.82;101257.84;5056093;28;20513;-49
2021/01/16 11:31:33;;;;;;;0.20;0.10;;;;;;;2.34;71.56;101246.84;5055847;28;20443;-50
2021/01/16 11:34:09;;;;;;;0.20;0.10;;;;;;;2.22;71.28;101246.59;5055694;28;20521;-49
2021/01/16 11:36:52;;;;;;;0.20;0.10;;;;;;;2.32;72.32;101245.91;5053769;28;20454;-49
2021/01/16 11:40:03;;;;;;;0.20;0.10;;;;;;;2.23;72.13;101249.25;5056108;28;20478;-49
2021/01/16 11:42:50;;;;;;;0.20;0.20;;;;;;;2.32;71.59;101245.91;5055714;28;20462;-50
2021/01/16 11:45:16;;;;;;;0.20;0.10;;;;;;;2.08;71.10;101246.31;5034546;28;20447;-50
2021/01/16 11:47:49;;;;;;;0.20;0.10;;;;;;;2.28;71.19;101237.09;5055669;28;20918;-49
2021/01/16 11:50:17;;;;;;;0.20;0.10;;;;;;;2.20;70.73;101240.44;5048320;28;20463;-49
2021/01/16 11:52:43;;;;;;;0.20;0.10;;;;;;;2.10;70.30;101238.47;5054137;28;20495;-50
2021/01/16 11:55:10;;;;;;;0.20;0.10;;;;;;;2.10;70.52;101239.34;5055532;28;20451;-49